createdAt,value
2019-04-27T00:00:11.811Z,22.55
2019-04-27T00:02:44.767Z,20.62
2019-04-27T00:05:16.204Z,23.77
2019-04-27T00:07:51.341Z,22.22
2019-04-27T00:10:26.998Z,19.32
2019-04-27T00:12:53.057Z,19.02
2019-04-27T00:15:31.137Z,27.70
2019-04-27T00:17:58.548Z,25.92
2019-04-27T00:20:29.939Z,21.42
2019-04-27T00:23:01.288Z,28.12
2019-04-27T00:25:32.660Z,20.70
2019-04-27T00:28:03.546Z,22.55
2019-04-27T00:30:35.639Z,24.35
2019-04-27T00:33:05.695Z,23.57
2019-04-27T00:35:36.929Z,23.38
2019-04-27T00:38:08.327Z,24.00
2019-04-27T00:40:39.727Z,21.45
2019-04-27T00:43:09.586Z,23.85
2019-04-27T00:45:39.425Z,20.85
2019-04-27T00:48:09.585Z,20.77
2019-04-27T00:50:39.410Z,22.22
2019-04-27T00:53:09.342Z,20.57
2019-04-27T00:55:40.915Z,23.57
2019-04-27T00:58:13.055Z,23.62
2019-04-27T01:00:44.537Z,25.43
2019-04-27T01:03:16.080Z,24.92
2019-04-27T01:05:45.952Z,22.73
2019-04-27T01:08:15.795Z,23.90
2019-04-27T01:10:45.631Z,20.48
2019-04-27T01:13:15.307Z,21.68
2019-04-27T01:15:45.031Z,23.55
2019-04-27T01:18:15.620Z,25.27
2019-04-27T01:20:45.492Z,25.15
2019-04-27T01:23:15.522Z,24.47
2019-04-27T01:25:46.796Z,21.87
2019-04-27T01:28:18.630Z,25.35
2019-04-27T01:30:51.332Z,21.93
2019-04-27T01:33:21.110Z,27.37
2019-04-27T01:35:50.948Z,25.08
2019-04-27T01:38:20.755Z,26.05
2019-04-27T01:40:50.413Z,23.90
2019-04-27T01:43:20.072Z,25.25
2019-04-27T01:45:49.808Z,25.60
2019-04-27T01:48:23.678Z,24.40
2019-04-27T01:50:50.986Z,25.75
2019-04-27T01:53:20.886Z,23.77
2019-04-27T01:55:50.724Z,20.43
2019-04-27T01:58:20.340Z,18.80
2019-04-27T02:00:51.848Z,25.77
2019-04-27T02:03:23.277Z,25.43
2019-04-27T02:05:54.753Z,27.58
2019-04-27T02:08:24.672Z,20.62
2019-04-27T02:10:54.615Z,25.43
2019-04-27T02:13:24.512Z,29.63
2019-04-27T02:15:55.395Z,24.12
2019-04-27T02:18:36.332Z,26.05
2019-04-27T02:20:56.599Z,25.95
2019-04-27T02:23:27.137Z,37.10
2019-04-27T02:25:58.569Z,26.82
2019-04-27T02:28:30.284Z,24.27
2019-04-27T02:31:03.385Z,28.67
2019-04-27T02:33:34.739Z,24.18
2019-04-27T02:36:04.633Z,27.58
2019-04-27T02:38:34.448Z,25.35
2019-04-27T02:41:05.180Z,23.90
2019-04-27T02:43:36.897Z,28.70
2019-04-27T02:46:09.393Z,23.55
2019-04-27T02:48:54.746Z,28.98
2019-04-27T02:53:42.732Z,30.35
2019-04-27T02:56:12.558Z,25.75
2019-04-27T02:58:42.513Z,29.45
2019-04-27T03:01:12.217Z,27.52
2019-04-27T03:03:42.205Z,29.70
2019-04-27T03:06:12.077Z,26.40
2019-04-27T03:08:42.670Z,32.33
2019-04-27T03:11:14.495Z,29.12
2019-04-27T03:13:51.714Z,25.08
2019-04-27T03:16:20.547Z,26.50
2019-04-27T03:19:09.830Z,26.93
2019-04-27T03:21:26.427Z,28.52
2019-04-27T03:23:56.444Z,29.52
2019-04-27T03:26:30.991Z,31.77
2019-04-27T03:29:00.168Z,28.52
2019-04-27T03:31:32.753Z,28.38
2019-04-27T03:34:05.415Z,27.90
2019-04-27T03:36:33.289Z,28.87
2019-04-27T03:39:03.277Z,33.53
2019-04-27T03:41:33.268Z,27.42
2019-04-27T03:44:03.520Z,29.52
2019-04-27T03:46:34.553Z,27.05
2019-04-27T03:49:05.202Z,31.37
2019-04-27T03:51:36.694Z,30.02
2019-04-27T03:54:10.388Z,33.35
2019-04-27T03:56:41.356Z,27.82
2019-04-27T03:59:12.839Z,29.90
2019-04-27T04:01:42.774Z,27.30
2019-04-27T04:04:12.486Z,28.23
2019-04-27T04:06:42.333Z,28.87
2019-04-27T04:09:12.906Z,32.10
2019-04-27T04:14:30.930Z,36.88
2019-04-27T04:17:03.152Z,34.00
2019-04-27T04:19:47.809Z,29.42
2019-04-27T04:22:04.784Z,35.75
2019-04-27T04:24:34.618Z,24.72
2019-04-27T04:27:04.717Z,29.20
2019-04-27T04:29:34.605Z,31.75
2019-04-27T04:32:05.597Z,27.37
2019-04-27T04:34:35.407Z,28.83
2019-04-27T04:37:05.309Z,31.42
2019-04-27T04:39:35.202Z,32.42
2019-04-27T04:42:10.068Z,25.72
2019-04-27T04:44:40.756Z,26.00
2019-04-27T04:47:12.532Z,35.80
2019-04-27T04:49:42.460Z,26.35
2019-04-27T04:52:12.366Z,31.23
2019-04-27T04:54:41.842Z,27.62
2019-04-27T04:57:11.736Z,31.87
2019-04-27T04:59:43.717Z,30.43
2019-04-27T05:02:13.250Z,34.85
2019-04-27T05:04:43.046Z,29.92
2019-04-27T05:07:12.865Z,31.73
2019-04-27T05:09:42.732Z,29.95
2019-04-27T05:12:12.484Z,26.60
2019-04-27T05:14:42.313Z,34.43
2019-04-27T05:17:12.193Z,25.32
2019-04-27T05:19:41.828Z,29.10
2019-04-27T05:22:11.708Z,27.93
2019-04-27T05:24:41.520Z,30.15
2019-04-27T05:27:12.906Z,33.25
2019-04-27T05:29:42.814Z,34.85
2019-04-27T05:32:12.731Z,31.77
2019-04-27T05:34:42.805Z,34.50
2019-04-27T05:37:12.607Z,23.57
2019-04-27T05:39:42.256Z,28.67
2019-04-27T05:42:16.979Z,36.28
2019-04-27T05:44:48.991Z,25.45
2019-04-27T05:47:20.446Z,37.35
2019-04-27T05:49:50.641Z,29.10
2019-04-27T05:52:22.098Z,35.73
2019-04-27T05:54:52.004Z,34.10
2019-04-27T05:57:21.813Z,31.87
2019-04-27T05:59:53.627Z,29.07
2019-04-27T06:02:24.479Z,32.98
2019-04-27T06:04:54.427Z,28.95
2019-04-27T06:07:24.348Z,30.52
2019-04-27T06:09:54.251Z,35.17
2019-04-27T06:12:24.201Z,26.52
2019-04-27T06:14:53.916Z,32.65
2019-04-27T06:17:23.569Z,40.03
2019-04-27T06:19:53.490Z,34.33
2019-04-27T06:22:24.299Z,31.82
2019-04-27T06:24:54.617Z,32.40
2019-04-27T06:27:25.589Z,30.43
2019-04-27T06:29:55.444Z,34.13
2019-04-27T06:32:25.327Z,27.32
2019-04-27T06:34:55.203Z,27.75
2019-04-27T06:37:25.151Z,32.35
2019-04-27T06:39:55.057Z,30.52
2019-04-27T06:42:24.926Z,29.10
2019-04-27T06:44:54.706Z,30.57
2019-04-27T06:47:24.578Z,27.90
2019-04-27T06:49:54.550Z,30.85
2019-04-27T06:52:24.612Z,33.18
2019-04-27T06:54:54.382Z,27.30
2019-04-27T06:57:24.335Z,36.88
2019-04-27T06:59:54.023Z,29.40
2019-04-27T07:02:23.877Z,27.80
2019-04-27T07:04:53.816Z,39.80
2019-04-27T07:07:23.650Z,27.55
2019-04-27T07:09:53.368Z,32.67
2019-04-27T07:12:23.386Z,24.52
2019-04-27T07:14:55.162Z,31.50
2019-04-27T07:17:24.677Z,28.07
2019-04-27T07:19:54.467Z,29.15
2019-04-27T07:22:24.256Z,27.77
2019-04-27T07:24:54.093Z,25.85
2019-04-27T07:27:24.086Z,22.07
2019-04-27T07:29:53.851Z,22.93
2019-04-27T07:32:24.847Z,27.10
2019-04-27T07:34:55.325Z,26.45
2019-04-27T07:37:25.572Z,30.65
2019-04-27T07:39:55.204Z,31.12
2019-04-27T07:42:24.975Z,23.77
2019-04-27T07:44:56.427Z,29.07
2019-04-27T07:47:30.750Z,27.22
2019-04-27T07:49:59.590Z,29.75
2019-04-27T07:52:30.711Z,34.43
2019-04-27T07:55:00.644Z,33.42
2019-04-27T07:57:30.460Z,29.63
2019-04-27T08:00:00.149Z,26.85
2019-04-27T08:02:29.901Z,19.67
2019-04-27T08:04:59.721Z,28.47
2019-04-27T08:07:29.501Z,31.27
2019-04-27T08:10:01.470Z,20.82
2019-04-27T08:12:31.826Z,23.27
2019-04-27T08:15:01.594Z,21.97
2019-04-27T08:17:32.582Z,28.42
2019-04-27T08:20:02.533Z,27.50
2019-04-27T08:22:32.183Z,25.68
2019-04-27T08:25:02.051Z,26.33
2019-04-27T08:27:33.603Z,26.65
2019-04-27T08:30:06.269Z,21.97
2019-04-27T08:32:39.053Z,29.25
2019-04-27T08:35:09.781Z,33.98
2019-04-27T08:37:39.522Z,29.80
2019-04-27T08:40:10.015Z,28.27
2019-04-27T08:42:39.785Z,24.47
2019-04-27T08:45:09.866Z,21.82
2019-04-27T08:47:41.744Z,24.65
2019-04-27T08:50:12.554Z,17.75
2019-04-27T08:52:42.960Z,23.62
2019-04-27T08:55:14.638Z,22.90
2019-04-27T08:57:44.600Z,26.35
2019-04-27T09:00:14.661Z,22.35
2019-04-27T09:02:47.243Z,27.60
2019-04-27T09:07:49.673Z,20.82
2019-04-27T09:10:22.157Z,17.15
2019-04-27T09:12:53.904Z,21.42
2019-04-27T09:15:25.573Z,24.37
2019-04-27T09:20:28.664Z,20.75
2019-04-27T09:22:59.239Z,25.23
2019-04-27T09:25:29.644Z,22.37
2019-04-27T09:27:59.806Z,17.55
2019-04-27T09:30:29.892Z,17.60
2019-04-27T09:33:00.067Z,25.82
2019-04-27T09:35:30.074Z,18.73
2019-04-27T09:37:59.751Z,25.60
2019-04-27T09:40:29.682Z,21.17
2019-04-27T09:42:59.464Z,19.57
2019-04-27T09:45:29.380Z,19.60
2019-04-27T09:47:59.349Z,32.78
2019-04-27T09:50:29.352Z,27.00
2019-04-27T09:53:00.303Z,26.23
2019-04-27T09:55:30.168Z,27.42
2019-04-27T09:58:00.001Z,27.27
2019-04-27T10:00:29.920Z,29.57
2019-04-27T10:02:59.818Z,22.80
2019-04-27T10:05:29.670Z,24.37
2019-04-27T10:07:59.494Z,22.80
2019-04-27T10:10:29.260Z,22.13
2019-04-27T10:12:59.143Z,24.85
2019-04-27T10:15:28.909Z,23.92
2019-04-27T10:17:58.833Z,25.88
2019-04-27T10:20:28.855Z,25.45
2019-04-27T10:22:58.582Z,24.07
2019-04-27T10:25:29.137Z,24.35
2019-04-27T10:27:58.971Z,27.05
2019-04-27T10:30:30.290Z,22.45
2019-04-27T10:33:01.115Z,25.65
2019-04-27T10:35:32.007Z,24.10
2019-04-27T10:38:02.152Z,26.68
2019-04-27T10:40:32.056Z,27.25
2019-04-27T10:43:01.917Z,20.75
2019-04-27T10:48:03.482Z,29.98
2019-04-27T10:50:33.410Z,17.42
2019-04-27T10:53:03.151Z,24.80
2019-04-27T10:55:33.084Z,22.30
2019-04-27T10:58:02.912Z,26.23
2019-04-27T11:00:34.431Z,30.37
2019-04-27T11:03:06.200Z,25.95
2019-04-27T11:05:37.763Z,24.07
2019-04-27T11:08:07.725Z,31.52
2019-04-27T11:10:37.711Z,29.32
2019-04-27T11:13:07.433Z,27.67
2019-04-27T11:15:37.475Z,21.07
2019-04-27T11:18:07.466Z,29.27
2019-04-27T11:20:37.144Z,20.17
2019-04-27T11:23:12.127Z,23.80
2019-04-27T11:28:07.424Z,22.85
2019-04-27T11:30:37.394Z,24.47
2019-04-27T11:33:07.303Z,24.95
2019-04-27T11:35:39.073Z,22.85
2019-04-27T11:38:09.034Z,29.30
2019-04-27T11:40:38.896Z,26.25
2019-04-27T11:43:08.730Z,24.65
2019-04-27T11:45:38.521Z,22.85
2019-04-27T11:48:08.438Z,32.95
2019-04-27T11:50:39.439Z,20.75
2019-04-27T11:53:19.785Z,27.00
2019-04-27T11:58:09.760Z,22.95
2019-04-27T12:00:39.552Z,22.48
2019-04-27T12:03:09.300Z,19.62
2019-04-27T12:05:39.021Z,27.02
2019-04-27T12:08:08.808Z,23.90
2019-04-27T12:10:38.552Z,21.85
2019-04-27T12:13:08.263Z,24.10
2019-04-27T12:15:38.298Z,24.12
2019-04-27T12:18:09.100Z,30.08
2019-04-27T12:20:39.253Z,21.77
2019-04-27T12:23:09.104Z,26.85
2019-04-27T12:25:39.024Z,23.73
2019-04-27T12:28:10.495Z,28.12
2019-04-27T12:30:41.965Z,26.27
2019-04-27T12:33:11.989Z,22.87
2019-04-27T12:35:41.824Z,26.95
2019-04-27T12:38:11.687Z,26.80
2019-04-27T12:40:41.534Z,16.95
2019-04-27T12:43:11.484Z,25.10
2019-04-27T12:45:43.597Z,23.02
2019-04-27T12:50:42.036Z,20.40
2019-04-27T12:53:13.552Z,23.50
2019-04-27T12:58:16.439Z,23.42
2019-04-27T13:00:48.086Z,21.68
2019-04-27T13:05:46.971Z,22.17
2019-04-27T13:08:16.892Z,27.85
2019-04-27T13:10:46.775Z,26.42
2019-04-27T13:13:16.606Z,18.25
2019-04-27T13:15:47.401Z,27.48
2019-04-27T13:18:17.292Z,26.65
2019-04-27T13:20:47.144Z,22.80
2019-04-27T13:23:17.042Z,17.60
2019-04-27T13:25:46.728Z,20.88
2019-04-27T13:28:18.567Z,20.25
2019-04-27T13:30:48.015Z,19.90
2019-04-27T13:33:17.982Z,20.50
2019-04-27T13:35:47.904Z,19.23
2019-04-27T13:38:18.130Z,21.07
2019-04-27T13:40:49.607Z,15.08
2019-04-27T13:45:51.475Z,20.90
2019-04-27T13:50:53.233Z,22.17
2019-04-27T13:53:23.164Z,16.05
2019-04-27T13:55:53.053Z,19.52
2019-04-27T13:58:22.933Z,19.80
2019-04-27T14:00:52.672Z,17.05
2019-04-27T14:03:22.605Z,27.37
2019-04-27T14:05:52.646Z,15.38
2019-04-27T14:08:24.243Z,21.10
2019-04-27T14:10:54.732Z,19.42
2019-04-27T14:13:24.582Z,22.65
2019-04-27T14:15:54.168Z,18.70
2019-04-27T14:18:24.073Z,23.47
2019-04-27T14:20:53.912Z,19.62
2019-04-27T14:23:25.152Z,22.42
2019-04-27T14:25:54.975Z,24.18
2019-04-27T14:28:24.869Z,15.40
2019-04-27T14:30:54.754Z,21.55
2019-04-27T14:33:24.646Z,17.27
2019-04-27T14:35:54.541Z,14.25
2019-04-27T14:38:24.071Z,22.98
2019-04-27T14:40:53.911Z,17.07
2019-04-27T14:43:23.895Z,22.27
2019-04-27T14:45:53.855Z,22.15
2019-04-27T14:48:23.672Z,19.77
2019-04-27T14:50:53.435Z,25.32
2019-04-27T14:53:23.406Z,22.30
2019-04-27T14:55:53.272Z,24.60
2019-04-27T14:58:23.192Z,26.20
2019-04-27T15:00:53.044Z,22.73
2019-04-27T15:03:22.883Z,31.33
2019-04-27T15:05:53.751Z,26.48
2019-04-27T15:08:25.554Z,21.05
2019-04-27T15:13:24.664Z,17.40
2019-04-27T15:15:54.480Z,21.25
2019-04-27T15:18:25.922Z,17.67
2019-04-27T15:20:58.563Z,18.52
2019-04-27T15:26:00.371Z,27.55
2019-04-27T15:36:42.081Z,15.68
2019-04-27T15:39:13.471Z,14.45
2019-04-27T15:44:14.340Z,15.50
2019-04-27T15:46:44.204Z,15.97
2019-04-27T15:49:14.037Z,13.62
2019-04-27T15:51:43.937Z,15.45
2019-04-27T15:54:13.849Z,16.37
2019-04-27T15:56:43.863Z,20.32
2019-04-27T15:59:13.697Z,16.87
2019-04-27T16:01:43.529Z,14.15
2019-04-27T16:04:13.421Z,16.55
2019-04-27T16:06:47.425Z,17.75
2019-04-27T16:11:50.054Z,15.10
2019-04-27T16:16:48.851Z,20.27
2019-04-27T16:19:18.711Z,13.90
2019-04-27T16:21:54.037Z,13.30
2019-04-27T16:26:54.612Z,20.35
2019-04-27T16:31:52.604Z,19.27
2019-04-27T16:34:23.487Z,16.20
2019-04-27T16:36:53.390Z,16.07
2019-04-27T16:39:23.444Z,14.47
2019-04-27T16:41:53.278Z,20.27
2019-04-27T16:44:23.160Z,21.50
2019-04-27T16:46:53.077Z,17.87
2019-04-27T16:49:24.441Z,20.82
2019-04-27T16:51:54.156Z,19.10
2019-04-27T16:54:23.957Z,16.37
2019-04-27T16:57:02.448Z,15.50
2019-04-27T16:59:42.301Z,19.27
2019-04-27T17:01:56.859Z,19.62
2019-04-27T17:04:26.636Z,18.10
2019-04-27T17:06:56.531Z,19.17
2019-04-27T17:09:26.389Z,19.37
2019-04-27T17:11:56.729Z,17.35
2019-04-27T17:14:34.956Z,17.82
2019-04-27T17:17:03.649Z,18.27
2019-04-27T17:19:41.251Z,17.00
2019-04-27T17:22:10.499Z,21.82
2019-04-27T17:24:44.034Z,20.60
2019-04-27T17:27:11.700Z,18.75
2019-04-27T17:29:42.086Z,23.83
2019-04-27T17:32:13.663Z,16.95
2019-04-27T17:34:43.468Z,15.13
2019-04-27T17:37:13.393Z,17.20
2019-04-27T17:39:43.271Z,14.63
2019-04-27T17:42:13.139Z,20.23
2019-04-27T17:44:42.969Z,16.30
2019-04-27T17:47:12.841Z,18.62
2019-04-27T17:49:42.555Z,18.07
2019-04-27T17:52:13.037Z,20.57
2019-04-27T17:54:47.409Z,22.98
2019-04-27T17:57:15.214Z,19.07
2019-04-27T17:59:45.091Z,20.45
2019-04-27T18:02:15.012Z,18.95
2019-04-27T18:04:44.833Z,19.35
2019-04-27T18:07:14.672Z,22.05
2019-04-27T18:09:44.620Z,17.60
2019-04-27T18:12:15.803Z,21.68
2019-04-27T18:14:45.800Z,13.72
2019-04-27T18:17:15.580Z,18.75
2019-04-27T18:19:47.012Z,18.65
2019-04-27T18:22:18.155Z,23.32
2019-04-27T18:24:49.961Z,20.05
2019-04-27T18:27:21.781Z,19.32
2019-04-27T18:32:23.566Z,21.73
2019-04-27T18:34:52.027Z,23.65
2019-04-27T18:37:24.981Z,21.93
2019-04-27T18:39:55.016Z,21.40
2019-04-27T18:42:28.038Z,28.65
2019-04-27T18:44:56.487Z,20.68
2019-04-27T18:47:26.179Z,20.00
2019-04-27T18:50:07.992Z,25.97
2019-04-27T18:52:30.684Z,21.30
2019-04-27T18:55:00.539Z,25.37
2019-04-27T18:57:30.388Z,19.70
2019-04-27T19:00:00.223Z,19.10
2019-04-27T19:02:30.085Z,20.55
2019-04-27T19:04:59.897Z,25.20
2019-04-27T19:07:29.609Z,21.40
2019-04-27T19:09:59.419Z,20.43
2019-04-27T19:12:29.176Z,18.85
2019-04-27T19:14:59.106Z,18.20
2019-04-27T19:17:28.912Z,24.05
2019-04-27T19:19:58.801Z,27.55
2019-04-27T19:22:30.030Z,23.02
2019-04-27T19:24:59.993Z,23.52
2019-04-27T19:27:31.437Z,26.00
2019-04-27T19:30:02.900Z,21.12
2019-04-27T19:32:33.607Z,23.98
2019-04-27T19:35:04.924Z,31.25
2019-04-27T19:37:34.681Z,26.82
2019-04-27T19:40:06.295Z,28.50
2019-04-27T19:42:38.592Z,21.65
2019-04-27T19:45:08.677Z,21.00
2019-04-27T19:47:38.467Z,20.60
2019-04-27T19:50:10.237Z,26.87
2019-04-27T19:55:09.206Z,26.20
2019-04-27T19:57:41.971Z,28.07
2019-04-27T20:00:12.432Z,24.10
2019-04-27T20:02:42.562Z,19.02
2019-04-27T20:05:16.303Z,28.75
2019-04-27T20:07:44.777Z,31.27
2019-04-27T20:10:14.826Z,26.57
2019-04-27T20:12:44.632Z,33.33
2019-04-27T20:15:14.515Z,30.75
2019-04-27T20:17:44.336Z,36.55
2019-04-27T20:20:14.353Z,26.87
2019-04-27T20:22:43.955Z,28.98
2019-04-27T20:25:13.862Z,30.02
2019-04-27T20:27:49.633Z,32.65
2019-04-27T20:30:15.549Z,30.37
2019-04-27T20:32:45.537Z,26.57
2019-04-27T20:35:15.284Z,26.57
2019-04-27T20:37:45.164Z,24.70
2019-04-27T20:40:15.354Z,30.85
2019-04-27T20:42:44.996Z,24.80
2019-04-27T20:45:15.111Z,28.45
2019-04-27T20:47:44.566Z,21.77
2019-04-27T20:50:14.485Z,27.32
2019-04-27T20:52:45.732Z,25.57
2019-04-27T20:55:15.612Z,22.83
2019-04-27T20:57:58.399Z,28.38
2019-04-27T21:00:18.731Z,26.70
2019-04-27T21:02:51.833Z,20.08
2019-04-27T21:05:23.228Z,25.50
2019-04-27T21:07:54.571Z,28.67
2019-04-27T21:10:24.412Z,21.42
2019-04-27T21:12:54.443Z,24.87
2019-04-27T21:15:24.211Z,23.07
2019-04-27T21:17:54.027Z,25.23
2019-04-27T21:20:23.829Z,17.52
2019-04-27T21:22:53.760Z,21.55
2019-04-27T21:25:23.547Z,20.80
2019-04-27T21:27:53.380Z,19.35
2019-04-27T21:30:23.300Z,16.60
2019-04-27T21:32:54.622Z,21.93
2019-04-27T21:35:24.451Z,15.93
2019-04-27T21:37:54.214Z,17.62
2019-04-27T21:40:24.138Z,25.45
2019-04-27T21:42:53.884Z,16.60
2019-04-27T21:45:23.697Z,13.38
2019-04-27T21:47:53.571Z,14.53
2019-04-27T21:50:23.439Z,20.02
2019-04-27T21:55:42.218Z,17.57
2019-04-27T21:58:13.115Z,22.40
2019-04-27T22:00:44.559Z,14.75
2019-04-27T22:03:17.503Z,20.57
2019-04-27T22:05:47.411Z,16.25
2019-04-27T22:08:17.380Z,18.32
2019-04-27T22:10:47.260Z,16.57
2019-04-27T22:13:17.155Z,14.13
2019-04-27T22:15:46.884Z,16.82
2019-04-27T22:18:16.827Z,25.55
2019-04-27T22:20:46.741Z,14.38
2019-04-27T22:23:18.215Z,14.98
2019-04-27T22:25:48.169Z,13.93
2019-04-27T22:28:18.068Z,14.98
2019-04-27T22:30:47.920Z,17.48
2019-04-27T22:33:17.720Z,13.80
2019-04-27T22:35:47.527Z,14.28
2019-04-27T22:38:17.321Z,15.20
2019-04-27T22:40:48.637Z,24.00
2019-04-27T22:43:20.133Z,19.45
2019-04-27T22:45:51.051Z,18.27
2019-04-27T22:48:21.039Z,16.02
2019-04-27T22:50:51.485Z,15.18
2019-04-27T22:53:21.460Z,17.20
2019-04-27T22:55:52.790Z,18.00
2019-04-27T22:58:22.665Z,15.50
2019-04-27T23:00:54.022Z,17.12
2019-04-27T23:03:25.240Z,15.83
2019-04-27T23:05:55.160Z,19.15
2019-04-27T23:08:24.976Z,22.65
2019-04-27T23:10:54.933Z,18.75
2019-04-27T23:13:24.572Z,14.35
2019-04-27T23:15:55.835Z,17.70
2019-04-27T23:18:25.643Z,17.62
2019-04-27T23:20:55.327Z,16.07
2019-04-27T23:23:25.147Z,17.32
2019-04-27T23:25:55.127Z,17.48
2019-04-27T23:28:24.891Z,18.50
2019-04-27T23:30:56.385Z,13.45
2019-04-27T23:33:26.447Z,14.07
2019-04-27T23:35:56.252Z,17.07
2019-04-27T23:38:26.096Z,15.08
2019-04-27T23:40:56.789Z,14.03
2019-04-27T23:43:26.682Z,15.23
2019-04-27T23:45:57.648Z,14.38
2019-04-27T23:48:27.732Z,15.68
2019-04-27T23:50:59.029Z,13.85
2019-04-27T23:53:31.741Z,16.48
2019-04-27T23:56:01.401Z,14.87
2019-04-27T23:58:31.252Z,17.90
